Time;durP1;ratioP1;P1;durP2;ratioP2;P2;SDS_P1;SDS_P2;PMS_P1;PMS_P2;Temp;Humidity;BMP_temperature;BMP_pressure;BME280_temperature;BME280_humidity;BME280_pressure;Samples;Min_cycle;Max_cycle;Signal;HPM_P1;HPM_P2
2023/09/12 00:00:51;;;;;;;2.90;2.90;;;24.70;75.00;;;;;;5109643;27;43813;-77
2023/09/12 00:03:20;;;;;;;3.58;3.47;;;24.70;75.90;;;;;;5085107;27;44368;-77
2023/09/12 00:05:52;;;;;;;3.03;3.03;;;24.70;75.40;;;;;;5109981;27;43373;-77
2023/09/12 00:08:20;;;;;;;2.95;2.95;;;24.60;75.50;;;;;;5114660;27;43365;-77
2023/09/12 00:10:48;;;;;;;3.35;3.15;;;24.60;75.40;;;;;;5098005;27;43895;-77
2023/09/12 00:13:16;;;;;;;3.55;3.38;;;24.60;75.50;;;;;;5116563;27;43435;-77
2023/09/12 00:15:46;;;;;;;4.10;2.97;;;24.60;75.60;;;;;;5088186;27;43440;-77
2023/09/12 00:18:14;;;;;;;5.00;2.97;;;24.60;75.60;;;;;;5096503;27;43662;-77
2023/09/12 00:20:42;;;;;;;5.00;3.63;;;24.50;75.60;;;;;;5086704;27;45990;-77
2023/09/12 00:23:10;;;;;;;3.17;2.97;;;24.60;75.60;;;;;;5113923;27;43382;-77
2023/09/12 00:25:38;;;;;;;3.50;3.20;;;24.70;75.20;;;;;;5097367;27;43366;-78
2023/09/12 00:28:06;;;;;;;3.25;2.95;;;24.80;74.90;;;;;;5105644;27;43423;-76
2023/09/12 00:30:34;;;;;;;3.50;3.20;;;24.90;74.50;;;;;;5086686;27;45780;-76
2023/09/12 00:33:05;;;;;;;3.55;3.40;;;24.90;74.20;;;;;;5089836;27;44833;-77
2023/09/12 00:35:33;;;;;;;3.20;3.00;;;24.90;74.30;;;;;;5093354;27;43712;-76
2023/09/12 00:38:01;;;;;;;3.42;3.33;;;24.90;74.60;;;;;;5094022;27;43392;-76
2023/09/12 00:40:29;;;;;;;3.25;3.15;;;24.80;74.60;;;;;;5092507;27;45807;-77
2023/09/12 00:42:57;;;;;;;3.10;3.10;;;24.80;74.70;;;;;;5090156;27;44685;-76
2023/09/12 00:45:25;;;;;;;3.30;3.20;;;24.80;75.00;;;;;;5088650;27;43655;-76
2023/09/12 00:47:53;;;;;;;3.40;3.30;;;24.70;75.10;;;;;;5098719;27;43409;-77
2023/09/12 00:50:23;;;;;;;3.13;3.03;;;24.70;75.20;;;;;;5087266;27;46056;-76
2023/09/12 00:52:51;;;;;;;3.38;3.28;;;24.70;75.30;;;;;;5088171;27;45016;-77
2023/09/12 00:55:19;;;;;;;3.33;3.22;;;24.70;75.40;;;;;;5091449;27;44047;-76
2023/09/12 00:57:48;;;;;;;3.33;3.22;;;24.60;75.40;;;;;;5088963;27;43547;-76
2023/09/12 01:00:16;;;;;;;3.10;3.00;;;24.60;76.30;;;;;;5092710;27;45865;-77
2023/09/12 01:02:45;;;;;;;3.15;3.15;;;24.60;75.60;;;;;;5091342;27;45097;-76
2023/09/12 01:05:14;;;;;;;3.05;3.05;;;24.60;75.60;;;;;;5090618;27;43448;-76
2023/09/12 01:07:44;;;;;;;3.47;3.38;;;24.60;75.60;;;;;;5093123;27;43719;-76
2023/09/12 01:10:12;;;;;;;3.30;3.10;;;24.50;75.70;;;;;;5078568;27;45857;-76
2023/09/12 01:12:40;;;;;;;3.08;3.08;;;24.60;75.80;;;;;;5093353;27;44391;-77
2023/09/12 01:15:14;;;;;;;3.10;3.10;;;24.70;75.40;;;;;;5091938;27;43395;-77
2023/09/12 01:17:43;;;;;;;3.40;3.30;;;24.80;75.00;;;;;;5091350;27;43435;-76
2023/09/12 01:20:13;;;;;;;3.30;3.20;;;24.90;74.60;;;;;;5086944;27;45758;-77
2023/09/12 01:23:01;;;;;;;3.38;3.28;;;24.90;74.40;;;;;;5086499;27;44852;-77
2023/09/12 01:26:02;;;;;;;3.45;3.35;;;24.90;74.50;;;;;;5093036;27;43788;-77
2023/09/12 01:28:34;;;;;;;3.20;3.20;;;24.80;74.70;;;;;;5088187;27;43674;-76
2023/09/12 01:31:03;;;;;;;3.58;3.47;;;24.80;74.80;;;;;;5091756;27;45309;-77
2023/09/12 01:33:31;;;;;;;3.20;3.10;;;24.80;75.00;;;;;;5111123;27;43374;-76
2023/09/12 01:36:00;;;;;;;3.10;3.10;;;24.70;75.10;;;;;;5090583;27;44536;-76
2023/09/12 01:38:29;;;;;;;3.47;3.38;;;24.70;75.30;;;;;;5090975;27;43936;-80
2023/09/12 01:40:57;;;;;;;3.47;3.38;;;24.70;75.30;;;;;;5082796;27;46169;-80
2023/09/12 01:43:26;;;;;;;3.70;3.60;;;24.70;75.40;;;;;;5087296;27;44419;-80
2023/09/12 01:45:56;;;;;;;3.22;3.13;;;24.70;75.40;;;;;;5079162;27;43980;-79
2023/09/12 01:48:26;;;;;;;3.60;3.50;;;24.60;75.40;;;;;;5091077;27;43636;-77
2023/09/12 01:50:55;;;;;;;3.50;3.38;;;24.60;75.60;;;;;;5085072;27;45704;-78
2023/09/12 01:53:23;;;;;;;3.17;3.08;;;24.60;75.50;;;;;;5093988;27;44406;-78
2023/09/12 01:55:51;;;;;;;3.70;3.60;;;24.70;75.20;;;;;;5095016;27;43449;-77
2023/09/12 01:58:19;;;;;;;3.35;3.25;;;24.80;74.80;;;;;;5088623;27;43496;-77
2023/09/12 02:00:48;;;;;;;3.45;3.33;;;24.90;74.40;;;;;;5088285;27;45995;-78
2023/09/12 02:03:17;;;;;;;3.25;3.15;;;24.90;74.20;;;;;;5085864;27;44336;-77
2023/09/12 02:05:45;;;;;;;3.35;3.25;;;24.90;74.30;;;;;;5089882;27;43411;-77
2023/09/12 02:08:13;;;;;;;3.40;3.30;;;24.80;74.60;;;;;;5095046;27;44090;-77
2023/09/12 02:10:41;;;;;;;3.50;3.40;;;24.80;74.70;;;;;;5113661;27;43599;-77
2023/09/12 02:13:09;;;;;;;3.78;3.65;;;24.80;74.80;;;;;;5081105;28;44698;-77
2023/09/12 02:15:38;;;;;;;3.50;3.40;;;24.70;74.80;;;;;;5089318;27;43451;-77
2023/09/12 02:18:07;;;;;;;3.40;3.30;;;24.70;75.10;;;;;;5092805;27;43482;-77
2023/09/12 02:20:39;;;;;;;3.55;3.45;;;24.70;75.30;;;;;;5095369;27;45718;-77
2023/09/12 02:23:07;;;;;;;3.70;3.60;;;24.70;75.30;;;;;;5099808;27;44771;-77
2023/09/12 02:25:35;;;;;;;3.75;3.55;;;24.70;75.40;;;;;;5097669;28;43443;-77
2023/09/12 02:28:03;;;;;;;3.42;3.33;;;24.60;75.30;;;;;;5117710;27;43390;-77
2023/09/12 02:30:31;;;;;;;3.20;3.10;;;24.60;75.60;;;;;;5092759;27;45732;-77
2023/09/12 02:33:00;;;;;;;3.08;2.97;;;24.60;75.50;;;;;;5120299;27;43397;-77
2023/09/12 02:35:29;;;;;;;3.25;3.20;;;24.70;75.20;;;;;;5099517;27;43332;-77
2023/09/12 02:37:58;;;;;;;3.33;3.22;;;24.80;74.80;;;;;;5089505;27;43464;-77
2023/09/12 02:40:26;;;;;;;3.60;3.50;;;24.90;74.60;;;;;;5094313;27;45979;-77
2023/09/12 02:42:54;;;;;;;3.60;3.50;;;24.90;74.50;;;;;;5095941;27;44056;-77
2023/09/12 02:45:23;;;;;;;3.55;3.45;;;24.80;74.50;;;;;;5094172;27;43545;-77
2023/09/12 02:47:51;;;;;;;3.03;3.03;;;24.80;74.90;;;;;;5093457;27;43591;-77
2023/09/12 02:50:19;;;;;;;3.60;3.50;;;24.70;74.80;;;;;;5087547;27;44978;-76
2023/09/12 02:52:47;;;;;;;3.38;3.28;;;24.70;75.00;;;;;;5095022;27;44451;-77
2023/09/12 02:55:16;;;;;;;3.55;3.45;;;24.70;75.20;;;;;;5091539;27;43407;-77
2023/09/12 02:57:44;;;;;;;3.60;3.50;;;24.60;75.40;;;;;;5110269;27;43340;-77
2023/09/12 03:00:13;;;;;;;3.65;3.55;;;24.60;76.10;;;;;;5094993;27;45546;-77
2023/09/12 03:02:41;;;;;;;3.30;3.20;;;24.60;75.40;;;;;;5098964;27;45063;-76
2023/09/12 03:05:10;;;;;;;3.55;3.45;;;24.60;75.40;;;;;;5099602;27;43407;-76
2023/09/12 03:07:38;;;;;;;3.58;3.47;;;24.60;75.50;;;;;;5096152;27;43446;-76
2023/09/12 03:10:07;;;;;;;3.58;3.47;;;24.50;75.60;;;;;;5093738;27;45766;-77
2023/09/12 03:12:38;;;;;;;3.70;3.60;;;24.60;75.60;;;;;;5109866;27;43358;-77
2023/09/12 03:15:07;;;;;;;3.63;3.53;;;24.70;75.30;;;;;;5117388;27;43418;-76
2023/09/12 03:17:38;;;;;;;3.72;3.55;;;24.80;74.80;;;;;;5099516;27;43349;-77
2023/09/12 03:20:08;;;;;;;3.78;3.67;;;24.90;74.50;;;;;;5098722;27;44922;-76
2023/09/12 03:22:37;;;;;;;3.40;3.30;;;24.90;74.40;;;;;;5083736;27;45095;-76
2023/09/12 03:25:07;;;;;;;3.45;3.25;;;24.80;74.40;;;;;;5098564;27;43473;-76
2023/09/12 03:27:36;;;;;;;3.30;3.22;;;24.80;74.80;;;;;;5097399;27;43626;-76
2023/09/12 03:30:07;;;;;;;3.60;3.50;;;24.80;75.00;;;;;;5116124;27;43623;-76
2023/09/12 03:32:36;;;;;;;3.60;3.50;;;24.80;75.00;;;;;;5094852;27;44382;-76
2023/09/12 03:35:05;;;;;;;3.20;3.15;;;24.70;75.10;;;;;;5095653;27;43479;-76
2023/09/12 03:37:33;;;;;;;3.60;3.50;;;24.70;75.30;;;;;;5094913;27;43623;-76
2023/09/12 03:40:02;;;;;;;3.50;3.40;;;24.60;75.40;;;;;;5107357;27;44100;-76
2023/09/12 03:42:30;;;;;;;3.28;3.17;;;24.60;75.40;;;;;;5109215;27;43430;-77
2023/09/12 03:45:12;;;;;;;3.65;3.50;;;24.60;75.60;;;;;;5094660;27;44019;-77
2023/09/12 03:47:40;;;;;;;3.50;3.40;;;24.60;75.70;;;;;;5095439;27;43603;-77
2023/09/12 03:50:09;;;;;;;3.35;3.25;;;24.60;75.80;;;;;;5094252;27;45855;-76
2023/09/12 03:52:37;;;;;;;3.53;3.42;;;24.60;75.70;;;;;;5094261;27;44663;-77
2023/09/12 03:55:05;;;;;;;3.30;3.20;;;24.70;75.30;;;;;;5092786;27;43403;-77
2023/09/12 03:57:34;;;;;;;3.42;3.38;;;24.80;74.90;;;;;;5098631;27;43483;-77
2023/09/12 04:00:05;;;;;;;3.42;3.33;;;24.80;74.50;;;;;;5095284;27;43807;-78
2023/09/12 04:02:42;;;;;;;3.78;3.63;;;24.90;74.70;;;;;;5108646;27;43906;-78
2023/09/12 04:05:11;;;;;;;3.58;3.47;;;24.80;74.70;;;;;;5089519;27;43373;-80
2023/09/12 04:07:40;;;;;;;4.00;3.58;;;24.80;75.00;;;;;;5105213;27;43470;-81
2023/09/12 04:10:09;;;;;;;4.68;4.28;;;24.70;75.00;;;;;;5092452;27;45500;-80
2023/09/12 04:12:37;;;;;;;10.27;5.43;;;24.70;75.10;;;;;;5109851;27;43381;-82
2023/09/12 04:15:07;;;;;;;9.20;5.75;;;24.70;75.10;;;;;;5080000;27;43991;-81
2023/09/12 04:17:35;;;;;;;8.25;5.50;;;24.70;75.50;;;;;;5091682;27;43941;-80
2023/09/12 04:20:06;;;;;;;13.82;6.50;;;24.70;75.50;;;;;;5086017;27;46028;-81
2023/09/12 04:22:35;;;;;;;15.82;7.13;;;24.70;75.30;;;;;;5086249;27;44763;-81
2023/09/12 04:25:04;;;;;;;17.70;8.60;;;24.80;74.90;;;;;;5088041;27;43569;-79
2023/09/12 04:27:34;;;;;;;23.25;9.07;;;24.90;74.60;;;;;;5086006;27;43601;-80
2023/09/12 04:30:03;;;;;;;18.13;8.73;;;24.90;74.50;;;;;;5080823;27;44426;-81
2023/09/12 04:32:32;;;;;;;20.95;9.45;;;24.80;74.60;;;;;;5082151;27;43781;-81
2023/09/12 04:35:00;;;;;;;20.98;8.82;;;24.80;74.90;;;;;;5091114;27;43427;-81
2023/09/12 04:37:30;;;;;;;20.77;9.38;;;24.70;75.00;;;;;;5091249;27;43669;-82
2023/09/12 04:39:58;;;;;;;17.00;8.45;;;24.70;75.10;;;;;;5107135;27;43939;-82
2023/09/12 04:42:26;;;;;;;17.88;9.20;;;24.70;75.20;;;;;;5088428;27;44994;-81
2023/09/12 04:44:54;;;;;;;19.35;9.43;;;24.70;75.40;;;;;;5090473;27;43456;-81
2023/09/12 04:47:23;;;;;;;20.02;8.93;;;24.60;75.50;;;;;;5086215;27;43579;-81
2023/09/12 04:49:52;;;;;;;19.15;9.32;;;24.60;75.50;;;;;;5078952;27;44999;-80
2023/09/12 04:52:20;;;;;;;18.65;9.30;;;24.60;75.50;;;;;;5082960;27;44813;-79
2023/09/12 04:54:49;;;;;;;19.30;9.73;;;24.60;75.40;;;;;;5090754;27;43427;-80
2023/09/12 04:57:18;;;;;;;17.48;9.13;;;24.60;75.00;;;;;;5089896;27;44008;-79
2023/09/12 04:59:46;;;;;;;17.50;8.68;;;24.60;75.20;;;;;;5090340;27;44717;-78
2023/09/12 05:02:15;;;;;;;18.55;9.70;;;24.70;75.00;;;;;;5100247;27;43448;-79
2023/09/12 05:04:43;;;;;;;13.00;8.38;;;24.80;74.60;;;;;;5089648;27;43528;-81
2023/09/12 05:07:23;;;;;;;16.52;9.18;;;24.80;74.30;;;;;;5088018;27;43498;-80
2023/09/12 05:10:00;;;;;;;18.52;9.52;;;24.80;74.30;;;;;;5086745;27;45747;-80
2023/09/12 05:12:28;;;;;;;15.68;8.98;;;24.80;74.60;;;;;;5089453;27;43491;-80
2023/09/12 05:14:57;;;;;;;17.58;8.15;;;24.80;74.80;;;;;;5087220;27;43464;-80
2023/09/12 05:17:26;;;;;;;15.73;9.02;;;24.70;74.80;;;;;;5110584;27;43543;-77
2023/09/12 05:19:54;;;;;;;16.98;8.75;;;24.70;74.90;;;;;;5080116;27;45563;-77
2023/09/12 05:22:24;;;;;;;14.40;9.10;;;24.70;75.10;;;;;;5087921;27;44765;-77
2023/09/12 05:24:59;;;;;;;16.63;9.02;;;24.60;75.30;;;;;;5094171;27;43456;-77
2023/09/12 05:27:44;;;;;;;16.08;8.77;;;24.60;75.40;;;;;;5113370;27;43489;-77
2023/09/12 05:30:16;;;;;;;12.40;8.38;;;24.70;75.20;;;;;;5093563;27;45886;-77
2023/09/12 05:32:53;;;;;;;11.73;8.25;;;24.80;74.80;;;;;;5113767;27;43398;-77
2023/09/12 05:35:25;;;;;;;12.52;8.27;;;24.90;74.50;;;;;;5068071;28;43882;-77
2023/09/12 05:37:57;;;;;;;11.45;8.35;;;24.90;74.30;;;;;;5094766;27;43476;-77
2023/09/12 05:40:26;;;;;;;15.35;9.18;;;24.80;74.40;;;;;;5091790;27;46000;-77
2023/09/12 05:43:04;;;;;;;14.20;8.73;;;24.80;74.70;;;;;;5092696;27;44728;-77
2023/09/12 05:45:34;;;;;;;11.43;7.68;;;24.80;74.80;;;;;;5096017;27;43541;-77
2023/09/12 05:48:09;;;;;;;11.48;8.43;;;24.70;74.80;;;;;;5086556;27;43475;-77
2023/09/12 05:50:40;;;;;;;12.27;8.10;;;24.70;75.10;;;;;;5079694;27;46118;-77
2023/09/12 05:53:09;;;;;;;13.30;8.10;;;24.60;75.20;;;;;;5095094;27;44793;-77
2023/09/12 05:55:46;;;;;;;11.50;7.97;;;24.60;75.20;;;;;;5094796;27;43442;-77
2023/09/12 05:58:14;;;;;;;11.10;7.88;;;24.60;75.10;;;;;;5094657;27;43472;-77
2023/09/12 06:00:43;;;;;;;10.13;7.88;;;24.60;75.30;;;;;;5094017;27;44046;-76
2023/09/12 06:03:16;;;;;;;10.35;7.95;;;24.60;75.30;;;;;;5089982;27;44517;-77
2023/09/12 06:05:48;;;;;;;10.80;7.78;;;24.50;75.40;;;;;;5085211;28;43434;-76
2023/09/12 06:08:18;;;;;;;10.32;7.72;;;24.50;76.00;;;;;;5107651;27;43426;-77
2023/09/12 06:11:07;;;;;;;10.35;7.68;;;24.50;75.40;;;;;;5104636;27;43915;-77
2023/09/12 06:13:40;;;;;;;10.27;8.10;;;24.50;75.40;;;;;;5107977;27;43394;-78
2023/09/12 06:16:17;;;;;;;9.40;7.30;;;24.50;75.50;;;;;;5083941;27;43405;-77
2023/09/12 06:18:45;;;;;;;8.23;7.40;;;24.50;75.30;;;;;;5090253;27;43858;-75
2023/09/12 06:21:13;;;;;;;9.00;6.82;;;24.60;75.00;;;;;;5108692;27;43619;-75
2023/09/12 06:23:41;;;;;;;9.30;7.63;;;24.70;74.60;;;;;;5111089;27;43475;-75
2023/09/12 06:26:10;;;;;;;9.90;7.60;;;24.80;74.20;;;;;;5092778;27;43610;-76
2023/09/12 06:28:39;;;;;;;8.05;7.18;;;24.90;73.90;;;;;;5109335;27;43573;-76
2023/09/12 06:31:09;;;;;;;7.38;6.78;;;24.90;73.90;;;;;;5106831;27;44031;-76
2023/09/12 06:33:37;;;;;;;9.40;7.40;;;24.80;74.10;;;;;;5107034;27;43371;-76
2023/09/12 06:36:05;;;;;;;7.68;7.00;;;24.80;74.30;;;;;;5107016;27;43991;-76
2023/09/12 06:38:33;;;;;;;8.02;7.18;;;24.70;74.20;;;;;;5104670;27;43869;-76
2023/09/12 06:41:03;;;;;;;7.72;6.93;;;24.70;74.50;;;;;;5106636;27;44255;-76
2023/09/12 06:43:33;;;;;;;7.68;7.00;;;24.70;74.70;;;;;;5089035;27;43357;-77
2023/09/12 06:46:01;;;;;;;7.38;6.55;;;24.60;74.80;;;;;;5087472;27;43361;-76
2023/09/12 06:48:29;;;;;;;10.10;6.80;;;24.60;74.80;;;;;;5089492;27;43443;-76
2023/09/12 06:50:57;;;;;;;7.15;6.47;;;24.60;74.90;;;;;;5104670;27;43958;-76
2023/09/12 06:53:25;;;;;;;7.40;6.80;;;24.60;75.10;;;;;;5104503;27;43389;-76
2023/09/12 06:55:57;;;;;;;9.43;6.53;;;24.50;75.10;;;;;;5106614;27;43413;-77
2023/09/12 06:58:25;;;;;;;7.97;7.22;;;24.50;75.00;;;;;;5107621;27;43447;-77
2023/09/12 07:00:54;;;;;;;7.22;6.43;;;24.60;74.80;;;;;;5106425;27;43607;-76
2023/09/12 07:03:23;;;;;;;7.50;6.80;;;24.70;74.80;;;;;;5083363;27;44074;-77
2023/09/12 07:05:52;;;;;;;7.78;6.70;;;24.80;74.10;;;;;;5088881;27;43332;-76
2023/09/12 07:08:20;;;;;;;7.57;6.88;;;24.80;73.90;;;;;;5105620;27;44148;-76
2023/09/12 07:10:48;;;;;;;7.53;6.82;;;24.80;74.10;;;;;;5092256;27;45774;-76
2023/09/12 07:13:16;;;;;;;7.90;6.53;;;24.80;74.40;;;;;;5091464;27;44511;-77
2023/09/12 07:15:44;;;;;;;6.78;6.20;;;24.70;74.40;;;;;;5089833;27;43500;-76
2023/09/12 07:18:14;;;;;;;7.07;6.38;;;24.70;74.50;;;;;;5109669;27;43573;-76
2023/09/12 07:20:43;;;;;;;7.00;6.32;;;24.70;74.70;;;;;;5086037;27;45670;-76
2023/09/12 07:23:11;;;;;;;7.25;6.65;;;24.60;74.80;;;;;;5104526;27;43453;-76
2023/09/12 07:25:40;;;;;;;7.50;6.82;;;24.60;74.90;;;;;;5100692;27;43366;-77
2023/09/12 07:28:08;;;;;;;6.90;6.30;;;24.60;74.90;;;;;;5094802;27;43608;-75
2023/09/12 07:30:37;;;;;;;7.00;6.50;;;24.60;75.00;;;;;;5114453;27;43592;-74
2023/09/12 07:33:05;;;;;;;6.90;6.40;;;24.50;75.00;;;;;;5107510;27;43428;-74
2023/09/12 07:35:35;;;;;;;7.15;6.57;;;24.50;75.20;;;;;;5087328;27;43371;-74
2023/09/12 07:38:03;;;;;;;6.75;6.25;;;24.50;75.10;;;;;;5105762;27;43422;-78
2023/09/12 07:40:31;;;;;;;7.00;6.50;;;24.60;74.70;;;;;;5090147;27;45733;-82
2023/09/12 07:42:59;;;;;;;7.22;6.63;;;24.70;74.40;;;;;;5090900;27;44408;-82
2023/09/12 07:45:29;;;;;;;7.15;6.55;;;24.80;74.10;;;;;;5107666;27;43448;-81
2023/09/12 07:47:57;;;;;;;6.90;6.32;;;24.80;73.90;;;;;;5085569;27;44085;-82
2023/09/12 07:50:25;;;;;;;6.15;5.85;;;24.80;74.00;;;;;;5105538;27;43964;-82
2023/09/12 07:52:55;;;;;;;6.30;5.90;;;24.70;74.20;;;;;;5106005;27;43309;-81
2023/09/12 07:55:24;;;;;;;6.53;6.13;;;24.70;74.50;;;;;;5091096;27;43459;-80
2023/09/12 07:57:53;;;;;;;7.57;6.90;;;24.70;74.40;;;;;;5105386;27;43968;-82
2023/09/12 08:00:21;;;;;;;6.85;6.28;;;24.60;74.50;;;;;;5086883;27;45659;-81
2023/09/12 08:02:50;;;;;;;7.43;6.75;;;24.60;74.80;;;;;;5101385;27;43424;-80
2023/09/12 08:05:18;;;;;;;6.75;6.28;;;24.50;74.80;;;;;;5101701;27;43529;-80
2023/09/12 08:07:47;;;;;;;6.40;6.00;;;24.50;74.90;;;;;;5088985;27;43536;-79
2023/09/12 08:10:16;;;;;;;6.40;6.00;;;24.50;75.00;;;;;;5104909;27;43853;-82
2023/09/12 08:12:44;;;;;;;6.55;6.15;;;24.50;75.00;;;;;;5101616;27;43910;-82
2023/09/12 08:15:12;;;;;;;7.10;6.57;;;24.50;75.20;;;;;;5100769;27;43339;-79
2023/09/12 08:17:40;;;;;;;6.88;6.32;;;24.50;75.00;;;;;;5102576;27;43473;-80
2023/09/12 08:20:10;;;;;;;6.20;5.90;;;24.60;74.80;;;;;;5087938;27;45394;-81
2023/09/12 08:22:38;;;;;;;6.90;6.50;;;24.70;74.30;;;;;;5086795;27;44374;-82
2023/09/12 08:25:07;;;;;;;7.03;6.43;;;24.80;74.00;;;;;;5107332;27;43447;-80
2023/09/12 08:27:36;;;;;;;6.57;6.18;;;24.80;73.90;;;;;;5108396;27;43965;-81
2023/09/12 08:30:05;;;;;;;6.50;6.10;;;24.80;74.10;;;;;;5083590;27;45616;-80
2023/09/12 08:32:33;;;;;;;7.38;6.75;;;24.70;74.40;;;;;;5098168;27;43989;-81
2023/09/12 08:35:03;;;;;;;6.32;5.95;;;24.70;74.40;;;;;;5086894;27;43534;-82
2023/09/12 08:37:31;;;;;;;7.07;6.60;;;24.70;74.50;;;;;;5110037;27;43423;-80
2023/09/12 08:39:59;;;;;;;6.53;6.03;;;24.60;74.50;;;;;;5109073;27;43602;-80
2023/09/12 08:42:28;;;;;;;6.45;6.05;;;24.60;74.80;;;;;;5088265;27;44832;-81
2023/09/12 08:44:58;;;;;;;6.03;5.72;;;24.50;74.90;;;;;;5105985;27;43477;-80
2023/09/12 08:47:35;;;;;;;7.20;6.70;;;24.50;75.00;;;;;;5107748;27;43470;-76
2023/09/12 08:50:05;;;;;;;6.22;5.82;;;24.50;75.00;;;;;;5084881;27;46463;-77
2023/09/12 08:52:39;;;;;;;7.07;6.60;;;24.50;75.00;;;;;;5084497;27;44437;-76
2023/09/12 08:55:22;;;;;;;6.70;6.28;;;24.50;75.30;;;;;;5090483;27;43420;-77
2023/09/12 08:57:51;;;;;;;6.18;5.88;;;24.50;75.30;;;;;;5109135;27;43405;-76
2023/09/12 09:00:22;;;;;;;6.28;5.97;;;24.40;75.20;;;;;;5108489;27;43928;-77
2023/09/12 09:02:51;;;;;;;5.72;5.45;;;24.40;75.30;;;;;;5105069;27;43419;-77
2023/09/12 09:05:25;;;;;;;6.07;5.78;;;24.40;75.50;;;;;;5108734;27;43337;-77
2023/09/12 09:08:03;;;;;;;6.32;6.03;;;24.50;75.40;;;;;;5076802;27;43531;-76
2023/09/12 09:10:43;;;;;;;6.63;6.13;;;24.50;75.00;;;;;;5108687;27;43785;-76
2023/09/12 09:13:18;;;;;;;6.70;6.40;;;24.70;74.50;;;;;;5106283;27;43394;-77
2023/09/12 09:15:47;;;;;;;6.53;6.13;;;24.70;74.10;;;;;;5089649;27;43411;-78
2023/09/12 09:18:15;;;;;;;6.15;5.85;;;24.80;74.20;;;;;;5109148;27;43489;-76
2023/09/12 09:20:45;;;;;;;6.00;5.53;;;24.70;74.30;;;;;;5089032;27;44798;-75
2023/09/12 09:23:13;;;;;;;6.50;6.15;;;24.70;74.70;;;;;;5088928;27;44266;-76
2023/09/12 09:25:42;;;;;;;6.25;5.95;;;24.60;74.80;;;;;;5089506;27;43953;-76
2023/09/12 09:28:17;;;;;;;6.03;5.72;;;24.60;74.80;;;;;;5103888;27;43393;-76
2023/09/12 09:30:47;;;;;;;6.03;5.63;;;24.50;74.90;;;;;;5088022;27;45622;-76
2023/09/12 09:33:16;;;;;;;6.10;5.80;;;24.50;75.20;;;;;;5107532;27;43447;-76
2023/09/12 09:35:45;;;;;;;6.00;5.75;;;24.50;75.20;;;;;;5081398;27;43423;-76
2023/09/12 09:38:16;;;;;;;6.22;5.82;;;24.50;75.20;;;;;;5108548;27;43414;-77
2023/09/12 09:40:44;;;;;;;6.13;5.72;;;24.50;75.20;;;;;;5091303;27;44763;-76
2023/09/12 09:43:14;;;;;;;6.57;6.28;;;24.40;75.20;;;;;;5096486;27;43474;-76
2023/09/12 09:45:47;;;;;;;6.15;5.75;;;24.40;75.50;;;;;;5108316;27;43334;-76
2023/09/12 09:48:19;;;;;;;6.68;6.28;;;24.50;75.50;;;;;;5086107;27;43504;-76
2023/09/12 09:50:47;;;;;;;6.28;5.90;;;24.60;75.10;;;;;;5085849;27;45770;-76
2023/09/12 09:53:15;;;;;;;5.70;5.50;;;24.70;74.60;;;;;;5103787;27;43592;-77
2023/09/12 09:55:43;;;;;;;6.03;5.65;;;24.80;74.40;;;;;;5093753;27;43338;-76
2023/09/12 09:58:16;;;;;;;6.00;5.80;;;24.80;74.30;;;;;;5108434;27;43827;-76
2023/09/12 10:00:45;;;;;;;6.00;5.80;;;24.80;74.50;;;;;;5099873;27;43847;-76
2023/09/12 10:03:14;;;;;;;6.95;6.55;;;24.70;74.70;;;;;;5107384;27;43460;-76
2023/09/12 10:05:42;;;;;;;6.35;6.00;;;24.70;74.80;;;;;;5104079;27;43450;-76
2023/09/12 10:08:11;;;;;;;5.97;5.68;;;24.70;74.80;;;;;;5106990;27;43399;-76
2023/09/12 10:10:39;;;;;;;5.75;5.45;;;24.60;74.90;;;;;;5085739;27;45989;-76
2023/09/12 10:13:07;;;;;;;6.60;6.20;;;24.60;76.00;;;;;;5087856;27;44737;-76
2023/09/12 10:15:35;;;;;;;6.05;5.75;;;24.50;75.20;;;;;;5101719;27;43389;-76
2023/09/12 10:18:05;;;;;;;5.70;5.43;;;24.50;75.20;;;;;;5102797;27;43473;-76
2023/09/12 10:20:39;;;;;;;6.32;6.07;;;24.50;75.30;;;;;;5101457;27;43709;-78
2023/09/12 10:23:11;;;;;;;5.68;5.47;;;24.50;75.50;;;;;;5088841;27;44406;-76
2023/09/12 10:25:39;;;;;;;6.30;6.00;;;24.50;75.60;;;;;;5080262;28;43485;-77
2023/09/12 10:28:07;;;;;;;5.78;5.57;;;24.50;75.50;;;;;;5100878;27;43427;-77
2023/09/12 10:30:35;;;;;;;6.13;5.85;;;24.60;75.10;;;;;;5107905;27;43660;-78
2023/09/12 10:33:04;;;;;;;5.75;5.45;;;24.70;74.70;;;;;;5107225;27;43445;-79
2023/09/12 10:39:46;;;;;;;6.38;5.97;;;24.80;74.50;;;;;;5099082;27;43447;-77
2023/09/12 10:42:14;;;;;;;6.03;5.82;;;24.70;74.80;;;;;;5110466;27;43928;-77
2023/09/12 10:44:42;;;;;;;5.90;5.60;;;24.70;75.00;;;;;;5105638;27;43957;-77
2023/09/12 10:47:10;;;;;;;5.82;5.60;;;24.70;75.00;;;;;;5085347;27;44054;-77
2023/09/12 10:49:38;;;;;;;5.85;5.65;;;24.60;75.10;;;;;;5110606;27;43405;-77
2023/09/12 10:52:06;;;;;;;6.07;5.75;;;24.60;75.30;;;;;;5106421;27;44040;-77
2023/09/12 10:54:38;;;;;;;6.00;5.70;;;24.60;75.40;;;;;;5103926;27;43531;-77
2023/09/12 10:57:11;;;;;;;6.07;5.82;;;24.60;75.40;;;;;;5082226;27;43523;-77
2023/09/12 10:59:43;;;;;;;5.85;5.65;;;24.50;75.30;;;;;;5081883;27;43566;-76
2023/09/12 11:02:30;;;;;;;5.90;5.70;;;24.50;75.60;;;;;;5094342;27;45707;-77
2023/09/12 11:04:59;;;;;;;5.93;5.53;;;24.50;75.70;;;;;;5082972;28;44676;-77
2023/09/12 11:07:34;;;;;;;5.80;5.60;;;24.50;75.60;;;;;;5077009;27;43483;-76
2023/09/12 11:10:21;;;;;;;6.18;5.88;;;24.50;75.60;;;;;;5080149;27;43797;-77
2023/09/12 11:12:51;;;;;;;6.10;5.80;;;24.50;75.70;;;;;;5100651;27;43686;-77
2023/09/12 11:15:20;;;;;;;6.20;6.00;;;24.50;75.90;;;;;;5103994;27;43355;-77
2023/09/12 11:17:48;;;;;;;6.28;6.07;;;24.50;75.60;;;;;;5100408;27;43481;-77
2023/09/12 11:20:17;;;;;;;6.20;5.95;;;24.60;75.30;;;;;;5079303;27;43544;-76
2023/09/12 11:22:45;;;;;;;6.05;5.85;;;24.70;74.90;;;;;;5099279;27;43914;-77
2023/09/12 11:25:18;;;;;;;5.95;5.75;;;24.80;74.60;;;;;;5079001;27;44930;-76
2023/09/12 11:27:47;;;;;;;5.93;5.72;;;24.80;74.50;;;;;;5099398;27;43406;-76
2023/09/12 11:30:17;;;;;;;5.80;5.50;;;24.80;74.50;;;;;;5103336;27;43526;-77
2023/09/12 11:32:46;;;;;;;5.95;5.75;;;24.80;74.90;;;;;;5102349;27;43899;-77
2023/09/12 11:35:18;;;;;;;6.20;5.90;;;24.80;75.00;;;;;;5077401;27;44736;-77
2023/09/12 11:37:49;;;;;;;5.90;5.70;;;24.70;74.90;;;;;;5081606;27;43363;-75
2023/09/12 11:40:18;;;;;;;6.40;6.18;;;24.70;75.10;;;;;;5099820;27;43976;-76
2023/09/12 11:42:47;;;;;;;6.13;5.93;;;24.60;75.40;;;;;;5103220;27;43618;-76
2023/09/12 11:45:16;;;;;;;5.80;5.60;;;24.60;75.40;;;;;;5101895;27;43496;-76
2023/09/12 11:47:45;;;;;;;6.25;5.95;;;24.60;75.40;;;;;;5101521;27;43360;-76
2023/09/12 11:50:27;;;;;;;6.00;5.72;;;24.60;75.40;;;;;;5097093;27;43410;-77
2023/09/12 11:53:03;;;;;;;5.95;5.63;;;24.60;75.70;;;;;;5097923;27;44253;-75
2023/09/12 11:55:36;;;;;;;5.60;5.40;;;24.50;75.70;;;;;;5102702;27;43411;-77
2023/09/12 11:58:04;;;;;;;6.18;5.88;;;24.60;75.50;;;;;;5098523;27;43563;-77
2023/09/12 12:00:34;;;;;;;6.80;6.50;;;24.70;75.20;;;;;;5095499;27;44083;-77
2023/09/12 12:03:02;;;;;;;5.32;5.13;;;24.80;74.80;;;;;;5099711;27;43747;-77
2023/09/12 12:05:30;;;;;;;5.78;5.57;;;24.80;74.60;;;;;;5072098;27;44720;-76
2023/09/12 12:07:59;;;;;;;6.03;5.80;;;24.80;74.60;;;;;;5100615;27;43509;-81
2023/09/12 12:10:50;;;;;;;6.07;5.88;;;24.80;74.80;;;;;;5103942;27;43531;-80
2023/09/12 12:13:18;;;;;;;5.90;5.70;;;24.80;75.10;;;;;;5101339;27;43984;-82
2023/09/12 12:15:48;;;;;;;5.97;5.78;;;24.70;75.10;;;;;;5080036;27;44746;-81
2023/09/12 12:18:16;;;;;;;6.55;6.25;;;24.70;75.20;;;;;;5083473;27;43474;-77
2023/09/12 12:20:45;;;;;;;6.22;6.03;;;24.70;75.30;;;;;;5088909;27;43717;-77
2023/09/12 12:23:13;;;;;;;5.47;5.38;;;24.60;75.60;;;;;;5102575;27;43595;-76
2023/09/12 12:25:41;;;;;;;6.40;6.10;;;24.60;75.50;;;;;;5089774;27;44046;-78
2023/09/12 12:28:09;;;;;;;6.18;5.97;;;24.60;75.60;;;;;;5087081;28;43543;-75
2023/09/12 12:30:37;;;;;;;7.47;7.07;;;24.60;75.60;;;;;;5104795;27;43777;-76
2023/09/12 12:33:09;;;;;;;7.22;6.78;;;24.50;75.90;;;;;;5076274;27;45797;-76
2023/09/12 12:36:01;;;;;;;6.18;5.97;;;24.60;75.90;;;;;;5095231;27;44643;-76
2023/09/12 12:38:33;;;;;;;6.25;6.05;;;24.60;76.30;;;;;;5083275;27;43482;-76
2023/09/12 12:41:03;;;;;;;6.50;6.18;;;24.70;75.20;;;;;;5085705;27;43576;-76
2023/09/12 12:43:31;;;;;;;6.93;6.45;;;24.80;75.00;;;;;;5104217;27;43817;-76
2023/09/12 12:45:59;;;;;;;6.35;6.05;;;24.80;74.80;;;;;;5079650;27;44719;-76
2023/09/12 12:48:32;;;;;;;6.28;6.07;;;24.80;75.00;;;;;;5091761;27;43427;-77
2023/09/12 12:51:00;;;;;;;6.10;5.90;;;24.70;75.20;;;;;;5088619;27;43612;-76
2023/09/12 12:53:38;;;;;;;6.28;6.07;;;24.70;75.30;;;;;;5102576;27;44089;-77
2023/09/12 12:56:21;;;;;;;5.95;5.75;;;24.70;75.30;;;;;;5086209;27;44648;-77
2023/09/12 12:58:50;;;;;;;6.35;6.00;;;24.70;75.40;;;;;;5102429;27;43419;-77
2023/09/12 13:01:18;;;;;;;6.65;6.25;;;24.60;75.60;;;;;;5087698;27;43446;-77
2023/09/12 13:03:49;;;;;;;6.82;6.43;;;24.60;75.80;;;;;;5101379;27;43838;-77